createdAt,value
2019-02-14T00:02:54.638Z,6.40
2019-02-14T00:20:19.106Z,5.90
2019-02-14T00:25:17.586Z,6.10
2019-02-14T00:27:46.970Z,5.80
2019-02-14T00:32:45.382Z,5.60
2019-02-14T00:37:43.873Z,5.60
2019-02-14T00:50:10.392Z,5.30
2019-02-14T00:52:39.743Z,5.60
2019-02-14T00:57:38.186Z,5.50
2019-02-14T01:00:10.422Z,5.40
2019-02-14T01:07:38.136Z,5.00
2019-02-14T01:15:09.630Z,5.00
2019-02-14T01:17:39.036Z,5.00
2019-02-14T01:20:08.675Z,5.10
2019-02-14T01:35:09.457Z,5.90
2019-02-14T01:37:38.918Z,5.20
2019-02-14T01:45:10.984Z,4.90
2019-02-14T01:50:11.679Z,5.00
2019-02-14T02:02:41.672Z,4.80
2019-02-14T02:05:11.016Z,4.90
2019-02-14T02:07:40.698Z,4.80
2019-02-14T02:15:13.894Z,5.30
2019-02-14T02:17:43.231Z,4.70
2019-02-14T02:20:12.895Z,4.70
2019-02-14T02:30:14.482Z,4.80
2019-02-14T02:35:12.948Z,5.10
2019-02-14T02:37:42.307Z,4.40
2019-02-14T02:42:40.773Z,4.50
2019-02-14T02:47:41.079Z,4.50
2019-02-14T02:52:42.480Z,4.20
2019-02-14T02:57:40.922Z,4.40
2019-02-14T03:00:19.037Z,4.40
2019-02-14T03:02:48.393Z,4.50
2019-02-14T03:07:46.836Z,4.30
2019-02-14T03:20:13.907Z,4.10
2019-02-14T03:22:43.247Z,4.20
2019-02-14T03:27:46.898Z,4.30
2019-02-14T03:32:46.027Z,4.10
2019-02-14T03:37:44.507Z,4.10
2019-02-14T03:40:15.010Z,4.00
2019-02-14T03:45:17.137Z,4.00
2019-02-14T03:47:46.475Z,4.10
2019-02-14T03:55:14.062Z,4.10
2019-02-14T03:57:43.455Z,4.70
2019-02-14T04:00:17.492Z,4.00
2019-02-14T04:02:46.840Z,4.20
2019-02-14T04:05:16.194Z,4.10
2019-02-14T04:10:15.508Z,3.90
2019-02-14T04:12:44.849Z,4.10
2019-02-14T04:17:47.507Z,3.90
2019-02-14T04:20:16.869Z,4.00
2019-02-14T04:22:46.201Z,4.10
2019-02-14T04:27:44.980Z,4.00
2019-02-14T04:32:44.659Z,4.10
2019-02-14T04:45:13.220Z,4.10
2019-02-14T04:52:41.639Z,3.80
2019-02-14T04:57:40.770Z,3.80
2019-02-14T05:00:15.482Z,3.90
2019-02-14T05:05:13.945Z,3.60
2019-02-14T05:07:43.326Z,3.80
2019-02-14T05:12:42.051Z,3.90
2019-02-14T05:15:12.155Z,3.70
2019-02-14T05:17:41.515Z,3.70
2019-02-14T05:25:10.605Z,4.10
2019-02-14T05:27:40.015Z,3.90
2019-02-14T05:45:14.204Z,3.90
2019-02-14T05:50:14.471Z,4.00
2019-02-14T05:57:42.544Z,3.80
2019-02-14T06:07:46.957Z,3.90
2019-02-14T06:15:14.921Z,3.90
2019-02-14T06:20:14.045Z,3.60
2019-02-14T06:22:43.479Z,3.60
2019-02-14T06:25:13.890Z,3.80
2019-02-14T06:27:43.254Z,3.70
2019-02-14T06:32:46.001Z,3.60
2019-02-14T06:40:14.842Z,3.60
2019-02-14T06:42:44.224Z,3.20
2019-02-14T06:45:19.392Z,3.90
2019-02-14T06:55:16.325Z,3.80
2019-02-14T06:57:45.727Z,3.90
2019-02-14T07:05:14.850Z,4.00
2019-02-14T07:07:44.375Z,3.90
2019-02-14T07:12:42.870Z,4.00
2019-02-14T07:15:16.053Z,4.20
2019-02-14T07:20:16.802Z,3.90
2019-02-14T07:27:44.720Z,4.20
2019-02-14T07:32:50.777Z,4.20
2019-02-14T07:37:49.438Z,3.90
2019-02-14T07:40:18.804Z,3.80
2019-02-14T07:47:47.201Z,4.10
2019-02-14T07:55:15.742Z,4.20
2019-02-14T07:57:45.097Z,4.40
2019-02-14T08:02:47.933Z,4.30
2019-02-14T08:05:17.380Z,4.20
2019-02-14T08:10:18.785Z,4.60
2019-02-14T08:12:49.829Z,4.90
2019-02-14T08:15:19.247Z,4.80
2019-02-14T08:17:48.649Z,5.00
2019-02-14T08:22:49.316Z,5.20
2019-02-14T08:25:18.743Z,5.10
2019-02-14T08:27:48.151Z,5.30
2019-02-14T08:30:20.046Z,5.30
2019-02-14T08:35:18.612Z,5.50
2019-02-14T08:37:48.139Z,5.40
2019-02-14T08:42:53.509Z,5.50
2019-02-14T08:47:52.376Z,5.60
2019-02-14T08:52:51.003Z,6.40
2019-02-14T09:05:17.321Z,6.00
2019-02-14T09:07:54.302Z,6.50
2019-02-14T09:10:18.627Z,6.10
2019-02-14T09:15:17.288Z,6.40
2019-02-14T09:17:46.673Z,6.50
2019-02-14T09:25:21.041Z,6.60
2019-02-14T09:30:19.674Z,6.70
2019-02-14T09:32:49.309Z,6.50
2019-02-14T09:37:47.825Z,6.60
2019-02-14T09:40:20.216Z,6.70
2019-02-14T09:52:46.965Z,6.80
2019-02-14T09:55:16.384Z,6.70
2019-02-14T09:57:45.807Z,7.40
2019-02-14T10:02:45.956Z,6.30
2019-02-14T10:07:44.840Z,6.30
2019-02-14T10:10:17.305Z,6.60
2019-02-14T10:12:46.725Z,6.40
2019-02-14T10:15:16.352Z,6.40
2019-02-14T10:22:46.405Z,6.30
2019-02-14T10:27:45.094Z,6.60
2019-02-14T10:30:24.321Z,6.50
2019-02-14T10:40:21.235Z,6.50
2019-02-14T10:42:50.834Z,7.00
2019-02-14T10:47:53.135Z,6.60
2019-02-14T10:52:51.797Z,6.90
2019-02-14T11:00:28.503Z,7.00
2019-02-14T11:02:57.913Z,7.10
2019-02-14T11:05:27.286Z,7.00
2019-02-14T11:12:55.308Z,7.20
2019-02-14T11:17:54.690Z,7.10
2019-02-14T11:28:06.074Z,7.60
2019-02-14T11:30:35.461Z,7.40
2019-02-14T11:35:34.332Z,7.30
2019-02-14T11:38:03.733Z,8.10
2019-02-14T11:40:33.142Z,7.50
2019-02-14T11:43:02.586Z,7.80
2019-02-14T11:45:31.984Z,7.60
2019-02-14T11:48:01.347Z,7.90
2019-02-14T11:50:30.749Z,8.10
2019-02-14T11:53:00.125Z,8.30
2019-02-14T11:57:58.748Z,8.20
2019-02-14T12:02:57.438Z,8.40
2019-02-14T12:10:25.244Z,8.20
2019-02-14T12:12:54.729Z,8.40
2019-02-14T12:17:53.329Z,8.50
2019-02-14T12:20:22.679Z,9.00
2019-02-14T12:28:01.089Z,8.50
2019-02-14T12:32:59.975Z,8.70
2019-02-14T12:35:29.442Z,8.80
2019-02-14T12:40:28.120Z,8.60
2019-02-14T12:47:56.494Z,8.90
2019-02-14T12:50:25.855Z,8.80
2019-02-14T13:00:24.311Z,8.80
2019-02-14T13:02:53.678Z,8.90
2019-02-14T13:07:52.185Z,9.00
2019-02-14T13:17:55.049Z,9.20
2019-02-14T13:32:54.878Z,9.30
2019-02-14T13:40:22.621Z,9.50
2019-02-14T13:45:25.627Z,9.60
2019-02-14T13:52:53.605Z,9.60
2019-02-14T13:55:23.005Z,9.60
2019-02-14T14:05:26.241Z,9.50
2019-02-14T14:07:55.616Z,9.70
2019-02-14T14:10:25.093Z,9.40
2019-02-14T14:12:54.546Z,9.80
2019-02-14T14:20:22.329Z,10.50
2019-02-14T14:27:50.073Z,9.60
2019-02-14T14:30:19.538Z,9.50
2019-02-14T14:32:48.972Z,10.30
2019-02-14T14:35:18.364Z,10.00
2019-02-14T14:37:47.757Z,9.80
2019-02-14T14:50:22.445Z,9.50
2019-02-14T14:57:50.127Z,9.40
2019-02-14T15:07:46.995Z,9.50
2019-02-14T15:15:14.709Z,9.50
2019-02-14T15:20:13.272Z,9.80
2019-02-14T15:22:42.765Z,9.40
2019-02-14T15:27:41.275Z,9.40
2019-02-14T15:30:10.732Z,9.50
2019-02-14T15:32:40.128Z,9.40
2019-02-14T15:35:10.096Z,10.20
2019-02-14T15:37:39.499Z,9.10
2019-02-14T15:42:39.479Z,9.00
2019-02-14T15:50:09.175Z,9.30
2019-02-14T15:52:38.613Z,9.10
2019-02-14T15:55:08.724Z,8.70
2019-02-14T15:57:39.987Z,9.00
2019-02-14T16:02:41.484Z,9.20
2019-02-14T16:05:10.854Z,8.80
2019-02-14T16:07:41.472Z,8.60
2019-02-14T16:10:18.249Z,8.70
2019-02-14T16:15:12.975Z,8.50
2019-02-14T16:17:42.399Z,8.60
2019-02-14T16:22:42.404Z,8.50
2019-02-14T16:27:41.454Z,8.30
2019-02-14T16:30:12.280Z,8.60
2019-02-14T16:35:10.962Z,8.50
2019-02-14T16:37:40.370Z,7.90
2019-02-14T16:40:10.746Z,8.20
2019-02-14T16:47:38.619Z,8.00
2019-02-14T16:52:38.877Z,8.00
2019-02-14T17:02:38.920Z,8.10
2019-02-14T17:05:08.540Z,7.60
2019-02-14T17:07:38.009Z,7.40
2019-02-14T17:10:11.792Z,7.70
2019-02-14T17:12:41.187Z,7.10
2019-02-14T17:15:11.318Z,7.30
2019-02-14T17:20:11.598Z,7.60
2019-02-14T17:25:10.680Z,7.30
2019-02-14T17:27:40.076Z,6.90
2019-02-14T17:35:09.118Z,6.90
2019-02-14T17:37:38.515Z,7.00
2019-02-14T17:42:38.879Z,6.50
2019-02-14T17:47:39.031Z,6.70
2019-02-14T18:02:41.717Z,6.50
2019-02-14T18:05:11.214Z,6.50
2019-02-14T18:07:40.585Z,6.40
2019-02-14T18:15:13.984Z,6.40
2019-02-14T18:20:12.683Z,6.40
2019-02-14T18:25:12.542Z,5.90
2019-02-14T18:27:42.290Z,6.20
2019-02-14T18:32:42.139Z,5.60
2019-02-14T18:37:41.789Z,6.60
2019-02-14T18:40:12.491Z,6.10
2019-02-14T18:42:45.546Z,6.20
2019-02-14T18:50:14.603Z,5.90
2019-02-14T18:52:44.035Z,5.70
2019-02-14T18:55:13.539Z,5.60
2019-02-14T19:00:17.650Z,5.50
2019-02-14T19:05:16.266Z,5.50
2019-02-14T19:07:45.696Z,5.30
2019-02-14T19:12:47.305Z,5.10
2019-02-14T19:15:16.768Z,5.40
2019-02-14T19:27:42.848Z,4.90
2019-02-14T19:30:13.053Z,5.50
2019-02-14T19:32:42.587Z,5.10
2019-02-14T19:47:41.261Z,4.80
2019-02-14T19:52:41.301Z,5.10
2019-02-14T20:00:16.813Z,4.80
2019-02-14T20:02:46.269Z,4.60
2019-02-14T20:05:15.970Z,4.90
2019-02-14T20:07:45.407Z,4.80
2019-02-14T20:12:44.422Z,5.20
2019-02-14T20:22:45.757Z,4.70
2019-02-14T20:30:16.711Z,5.10
2019-02-14T20:32:46.121Z,4.60
2019-02-14T20:37:44.864Z,4.20
2019-02-14T20:47:43.354Z,4.10
2019-02-14T20:57:47.692Z,3.90
2019-02-14T21:00:21.846Z,4.30
2019-02-14T21:02:51.373Z,4.20
2019-02-14T21:05:20.822Z,4.10
2019-02-14T21:10:20.651Z,4.10
2019-02-14T21:15:19.360Z,4.00
2019-02-14T21:17:48.862Z,4.00
2019-02-14T21:25:22.560Z,4.20
2019-02-14T21:35:18.214Z,3.80
2019-02-14T22:02:46.567Z,3.70
2019-02-14T22:17:48.768Z,3.40
2019-02-14T22:35:17.140Z,3.50
2019-02-14T22:37:46.557Z,3.50
2019-02-14T22:42:47.516Z,3.50
2019-02-14T22:45:16.731Z,3.50
2019-02-14T22:50:15.461Z,3.30
2019-02-14T23:00:37.667Z,3.00
2019-02-14T23:03:07.691Z,3.10
2019-02-14T23:05:37.182Z,3.10
2019-02-14T23:10:35.731Z,2.80
2019-02-14T23:15:34.371Z,3.10
2019-02-14T23:23:02.665Z,3.20
2019-02-14T23:25:32.064Z,3.00
2019-02-14T23:30:30.720Z,3.20
2019-02-14T23:33:00.101Z,3.10
2019-02-14T23:37:58.744Z,3.00
2019-02-14T23:45:28.475Z,3.00
2019-02-14T23:50:27.099Z,3.00
2019-02-14T23:57:54.776Z,3.20
